createdAt,value
2018-07-12T00:00:49.806Z,16.80
2018-07-12T00:03:16.353Z,16.87
2018-07-12T00:05:42.606Z,16.80
2018-07-12T00:08:08.860Z,16.77
2018-07-12T00:10:35.116Z,16.73
2018-07-12T00:13:01.343Z,16.79
2018-07-12T00:15:27.564Z,16.81
2018-07-12T00:17:53.809Z,16.77
2018-07-12T00:20:20.047Z,16.78
2018-07-12T00:22:46.638Z,16.78
2018-07-12T00:25:13.136Z,16.74
2018-07-12T00:27:39.407Z,16.76
2018-07-12T00:30:05.683Z,16.69
2018-07-12T00:32:31.936Z,16.74
2018-07-12T00:34:58.161Z,16.65
2018-07-12T00:37:24.493Z,16.69
2018-07-12T00:39:51.301Z,16.67
2018-07-12T00:42:17.553Z,16.70
2018-07-12T00:44:43.982Z,16.72
2018-07-12T00:47:10.279Z,16.73
2018-07-12T00:49:36.597Z,16.73
2018-07-12T00:52:03.214Z,16.64
2018-07-12T00:54:29.439Z,16.66
2018-07-12T00:56:55.660Z,16.72
2018-07-12T00:59:21.977Z,16.66
2018-07-12T01:01:48.349Z,16.65
2018-07-12T01:04:14.659Z,16.74
2018-07-12T01:06:41.082Z,16.69
2018-07-12T01:09:07.294Z,16.66
2018-07-12T01:11:34.797Z,16.61
2018-07-12T01:14:01.170Z,16.58
2018-07-12T01:16:27.409Z,16.68
2018-07-12T01:18:53.848Z,16.64
2018-07-12T01:21:20.128Z,16.63
2018-07-12T01:23:46.973Z,16.62
2018-07-12T01:26:13.251Z,16.63
2018-07-12T01:28:39.471Z,16.59
2018-07-12T01:31:06.412Z,16.52
2018-07-12T01:33:32.865Z,16.53
2018-07-12T01:35:59.108Z,16.53
2018-07-12T01:38:25.704Z,16.56
2018-07-12T01:40:52.034Z,16.53
2018-07-12T01:43:18.318Z,16.46
2018-07-12T01:45:44.571Z,16.50
2018-07-12T01:48:10.901Z,16.49
2018-07-12T01:50:37.146Z,16.41
2018-07-12T01:53:03.436Z,16.39
2018-07-12T01:55:29.712Z,16.34
2018-07-12T01:57:56.025Z,16.40
2018-07-12T02:00:22.353Z,16.40
2018-07-12T02:02:48.698Z,16.35
2018-07-12T02:05:15.253Z,16.33
2018-07-12T02:07:41.451Z,16.32
2018-07-12T02:10:07.663Z,16.28
2018-07-12T02:12:33.881Z,16.30
2018-07-12T02:15:00.094Z,16.22
2018-07-12T02:17:26.425Z,16.30
2018-07-12T02:19:52.710Z,16.27
2018-07-12T02:22:18.912Z,16.28
2018-07-12T02:24:45.125Z,16.21
2018-07-12T02:27:11.366Z,16.25
2018-07-12T02:29:37.569Z,16.20
2018-07-12T02:32:03.760Z,16.20
2018-07-12T02:34:29.985Z,16.17
2018-07-12T02:36:56.320Z,16.18
2018-07-12T02:39:22.629Z,16.15
2018-07-12T02:41:48.949Z,16.15
2018-07-12T02:44:15.213Z,16.16
2018-07-12T02:46:41.419Z,16.13
2018-07-12T02:49:07.623Z,16.20
2018-07-12T02:51:33.886Z,16.19
2018-07-12T02:54:00.135Z,16.16
2018-07-12T02:56:26.345Z,16.16
2018-07-12T02:58:52.614Z,16.09
2018-07-12T03:01:18.895Z,16.10
2018-07-12T03:03:45.144Z,16.05
2018-07-12T03:06:11.353Z,16.11
2018-07-12T03:08:37.593Z,16.01
2018-07-12T03:11:03.878Z,16.03
2018-07-12T03:13:30.119Z,16.04
2018-07-12T03:15:56.502Z,16.06
2018-07-12T03:18:22.740Z,16.01
2018-07-12T03:20:48.979Z,16.05
2018-07-12T03:23:15.208Z,16.05
2018-07-12T03:25:41.403Z,16.00
2018-07-12T03:28:07.652Z,16.01
2018-07-12T03:30:33.935Z,15.99
2018-07-12T03:33:00.792Z,15.94
2018-07-12T03:35:27.018Z,15.97
2018-07-12T03:37:53.240Z,16.02
2018-07-12T03:40:19.473Z,16.05
2018-07-12T03:42:45.681Z,16.06
2018-07-12T03:45:11.905Z,16.05
2018-07-12T03:47:38.180Z,16.01
2018-07-12T03:50:04.400Z,16.05
2018-07-12T03:52:30.633Z,16.06
2018-07-12T03:54:56.878Z,16.07
2018-07-12T03:57:23.187Z,16.10
2018-07-12T03:59:49.407Z,15.97
2018-07-12T04:02:15.661Z,16.01
2018-07-12T04:04:41.910Z,16.06
2018-07-12T04:07:08.145Z,16.08
2018-07-12T04:09:34.459Z,16.05
2018-07-12T04:12:00.715Z,16.09
2018-07-12T04:14:26.915Z,16.11
2018-07-12T04:16:53.122Z,16.07
2018-07-12T04:19:19.335Z,16.16
2018-07-12T04:21:45.574Z,16.16
2018-07-12T04:24:11.789Z,16.15
2018-07-12T04:26:38.008Z,16.18
2018-07-12T04:29:04.244Z,16.15
2018-07-12T04:31:30.453Z,16.22
2018-07-12T04:33:56.680Z,16.24
2018-07-12T04:36:22.941Z,16.24
2018-07-12T04:38:49.181Z,16.20
2018-07-12T04:41:16.087Z,16.28
2018-07-12T04:43:42.346Z,16.30
2018-07-12T04:46:08.589Z,16.34
2018-07-12T04:48:34.833Z,16.30
2018-07-12T04:51:01.154Z,16.31
2018-07-12T04:53:27.360Z,16.34
2018-07-12T04:55:53.673Z,16.44
2018-07-12T04:58:20.092Z,16.43
2018-07-12T05:00:46.220Z,16.42
2018-07-12T05:03:12.525Z,16.42
2018-07-12T05:05:38.737Z,16.54
2018-07-12T05:08:04.998Z,16.49
2018-07-12T05:10:31.613Z,16.48
2018-07-12T05:12:57.845Z,16.51
2018-07-12T05:15:24.697Z,16.59
2018-07-12T05:17:50.944Z,16.64
2018-07-12T05:20:17.265Z,16.56
2018-07-12T05:22:43.516Z,16.59
2018-07-12T05:25:09.771Z,16.67
2018-07-12T05:27:36.065Z,16.82
2018-07-12T05:30:02.366Z,16.76
2018-07-12T05:32:28.662Z,16.74
2018-07-12T05:34:55.052Z,16.84
2018-07-12T05:37:22.333Z,16.98
2018-07-12T05:39:50.021Z,17.04
2018-07-12T05:42:17.284Z,17.10
2018-07-12T05:44:44.527Z,17.36
2018-07-12T05:47:11.779Z,17.40
2018-07-12T05:49:39.123Z,17.23
2018-07-12T05:52:06.514Z,16.97
2018-07-12T05:54:33.867Z,17.43
2018-07-12T05:57:01.204Z,17.47
2018-07-12T05:59:28.555Z,17.24
2018-07-12T06:02:07.065Z,17.31
2018-07-12T06:04:35.234Z,17.33
2018-07-12T06:07:02.636Z,17.46
2018-07-12T06:09:29.945Z,17.20
2018-07-12T06:11:57.224Z,17.41
2018-07-12T06:14:24.495Z,17.58
2018-07-12T06:16:51.774Z,17.57
2018-07-12T06:19:19.262Z,17.48
2018-07-12T06:21:46.617Z,17.66
2018-07-12T06:24:13.969Z,17.65
2018-07-12T06:26:41.293Z,17.87
2018-07-12T06:29:08.601Z,17.80
2018-07-12T06:31:35.829Z,17.95
2018-07-12T06:34:03.251Z,18.81
2018-07-12T06:36:30.552Z,18.03
2018-07-12T06:38:57.934Z,18.15
2018-07-12T06:41:25.358Z,18.03
2018-07-12T06:43:52.647Z,17.82
2018-07-12T06:46:19.952Z,17.94
2018-07-12T06:48:47.310Z,18.09
2018-07-12T06:51:14.823Z,18.20
2018-07-12T06:53:42.207Z,18.34
2018-07-12T06:56:09.614Z,18.57
2018-07-12T06:58:36.913Z,18.25
2018-07-12T07:01:04.362Z,18.29
2018-07-12T07:03:31.748Z,18.08
2018-07-12T07:05:59.276Z,18.15
2018-07-12T07:08:26.928Z,18.37
2018-07-12T07:10:54.193Z,18.03
2018-07-12T07:13:21.547Z,18.22
2018-07-12T07:15:49.248Z,18.63
2018-07-12T07:18:17.770Z,18.95
2018-07-12T07:20:45.881Z,18.83
2018-07-12T07:23:13.297Z,19.10
2018-07-12T07:25:40.738Z,18.83
2018-07-12T07:28:08.345Z,19.08
2018-07-12T07:30:35.868Z,18.49
2018-07-12T07:33:03.183Z,18.44
2018-07-12T07:35:30.673Z,18.72
2018-07-12T07:37:58.021Z,18.86
2018-07-12T07:40:25.406Z,18.86
2018-07-12T07:42:52.731Z,18.40
2018-07-12T07:45:19.983Z,18.82
2018-07-12T07:47:47.253Z,19.01
2018-07-12T07:50:14.613Z,18.96
2018-07-12T07:52:41.927Z,18.55
2018-07-12T07:55:09.200Z,18.87
2018-07-12T07:57:36.474Z,18.84
2018-07-12T08:00:04.180Z,18.89
2018-07-12T08:02:32.104Z,19.27
2018-07-12T08:04:59.459Z,20.43
2018-07-12T08:07:26.721Z,19.98
2018-07-12T08:09:53.998Z,19.26
2018-07-12T08:12:21.305Z,18.82
2018-07-12T08:14:48.638Z,19.07
2018-07-12T08:17:15.924Z,19.44
2018-07-12T08:19:43.513Z,19.29
2018-07-12T08:22:10.897Z,18.75
2018-07-12T08:24:39.171Z,19.41
2018-07-12T08:27:06.653Z,19.17
2018-07-12T08:29:34.127Z,19.34
2018-07-12T08:32:02.621Z,19.81
2018-07-12T08:34:29.880Z,19.69
2018-07-12T08:36:57.260Z,19.83
2018-07-12T08:39:24.651Z,21.01
2018-07-12T08:41:52.266Z,21.14
2018-07-12T08:44:19.888Z,20.88
2018-07-12T08:46:47.356Z,22.00
2018-07-12T08:49:15.634Z,22.91
2018-07-12T08:51:42.927Z,22.20
2018-07-12T08:54:10.234Z,22.63
2018-07-12T08:56:37.503Z,22.10
2018-07-12T08:59:04.785Z,22.00
2018-07-12T09:01:32.094Z,21.93
2018-07-12T09:03:59.444Z,21.96
2018-07-12T09:06:26.822Z,21.61
2018-07-12T09:08:54.238Z,21.25
2018-07-12T09:11:21.532Z,21.48
2018-07-12T09:13:48.830Z,21.70
2018-07-12T09:16:16.220Z,21.16
2018-07-12T09:18:44.196Z,21.08
2018-07-12T09:21:11.668Z,20.87
2018-07-12T09:23:39.125Z,21.18
2018-07-12T09:28:33.292Z,21.33
2018-07-12T09:31:00.694Z,20.84
2018-07-12T09:33:28.010Z,21.24
2018-07-12T09:35:55.287Z,21.22
2018-07-12T09:38:34.833Z,21.39
2018-07-12T09:41:02.245Z,21.64
2018-07-12T09:43:29.876Z,21.71
2018-07-12T09:45:57.229Z,21.43
2018-07-12T09:48:24.752Z,22.09
2018-07-12T09:50:52.169Z,22.36
2018-07-12T09:53:19.417Z,23.37
2018-07-12T09:55:46.819Z,24.17
2018-07-12T09:58:26.398Z,24.24
2018-07-12T10:00:59.339Z,26.27
2018-07-12T10:03:32.349Z,27.21
2018-07-12T10:05:59.808Z,28.50
2018-07-12T10:08:32.669Z,29.77
2018-07-12T10:11:05.526Z,30.02
2018-07-12T10:13:38.250Z,30.48
2018-07-12T10:16:11.394Z,31.15
2018-07-12T10:18:38.781Z,31.76
2018-07-12T10:21:06.154Z,31.78
2018-07-12T10:23:33.409Z,31.31
2018-07-12T10:26:01.362Z,30.65
2018-07-12T10:28:28.755Z,29.72
2018-07-12T10:30:56.176Z,29.67
2018-07-12T10:33:23.435Z,29.82
2018-07-12T10:35:50.714Z,31.01
2018-07-12T10:38:18.332Z,30.00
2018-07-12T10:40:46.837Z,30.71
2018-07-12T10:43:14.255Z,31.40
2018-07-12T10:45:42.090Z,32.65
2018-07-12T10:48:09.446Z,31.85
2018-07-12T10:50:36.796Z,30.18
2018-07-12T10:53:04.216Z,30.62
2018-07-12T10:55:31.442Z,31.24
2018-07-12T10:57:58.977Z,30.86
2018-07-12T11:00:26.396Z,31.78
2018-07-12T11:02:53.951Z,29.60
2018-07-12T11:05:21.366Z,28.13
2018-07-12T11:07:48.942Z,28.72
2018-07-12T11:10:16.198Z,29.26
2018-07-12T11:12:43.453Z,29.16
2018-07-12T11:15:10.771Z,29.39
2018-07-12T11:17:38.787Z,31.75
2018-07-12T11:22:40.042Z,33.53
2018-07-12T11:25:07.331Z,33.43
2018-07-12T11:27:34.616Z,34.17
2018-07-12T11:30:01.945Z,33.18
2018-07-12T11:32:29.700Z,32.98
2018-07-12T11:34:57.112Z,31.30
2018-07-12T11:37:25.524Z,33.14
2018-07-12T11:39:52.825Z,32.95
2018-07-12T11:42:20.130Z,33.37
2018-07-12T11:44:47.954Z,32.58
2018-07-12T11:47:15.250Z,31.40
2018-07-12T11:49:42.552Z,30.64
2018-07-12T11:52:10.054Z,28.95
2018-07-12T11:54:37.547Z,29.39
2018-07-12T11:57:04.839Z,28.62
2018-07-12T11:59:32.116Z,28.34
2018-07-12T12:01:59.398Z,27.13
2018-07-12T12:04:26.663Z,27.23
2018-07-12T12:06:53.919Z,26.79
2018-07-12T12:09:21.257Z,26.78
2018-07-12T12:11:48.526Z,27.11
2018-07-12T12:14:15.790Z,27.27
2018-07-12T12:16:43.065Z,26.49
2018-07-12T12:19:10.340Z,26.92
2018-07-12T12:21:37.744Z,26.45
2018-07-12T12:24:05.150Z,26.71
2018-07-12T12:26:32.448Z,26.72
2018-07-12T12:28:59.777Z,27.04
2018-07-12T12:31:27.751Z,26.63
2018-07-12T12:33:55.159Z,26.63
2018-07-12T12:36:22.746Z,26.48
2018-07-12T12:38:50.788Z,26.55
2018-07-12T12:41:18.375Z,26.87
2018-07-12T12:43:45.781Z,27.07
2018-07-12T12:46:13.282Z,26.95
2018-07-12T12:48:40.582Z,26.78
2018-07-12T12:51:07.819Z,25.77
2018-07-12T12:53:35.172Z,25.78
2018-07-12T12:56:02.522Z,26.15
2018-07-12T12:58:30.313Z,26.26
2018-07-12T13:00:58.237Z,25.27
2018-07-12T13:03:25.760Z,26.18
2018-07-12T13:05:53.098Z,25.73
2018-07-12T13:08:20.327Z,26.15
2018-07-12T13:10:47.817Z,25.96
2018-07-12T13:13:15.157Z,25.88
2018-07-12T13:15:42.441Z,26.11
2018-07-12T13:18:09.733Z,25.35
2018-07-12T13:20:37.060Z,25.39
2018-07-12T13:23:04.412Z,26.01
2018-07-12T13:25:31.724Z,26.00
2018-07-12T13:27:59.049Z,25.80
2018-07-12T13:30:33.003Z,25.91
2018-07-12T13:33:00.345Z,25.76
2018-07-12T13:35:27.720Z,25.90
2018-07-12T13:37:55.057Z,25.76
2018-07-12T13:40:22.351Z,25.66
2018-07-12T13:42:49.622Z,25.99
2018-07-12T13:45:16.945Z,25.61
2018-07-12T13:47:44.285Z,26.10
2018-07-12T13:50:11.573Z,25.64
2018-07-12T13:52:38.848Z,25.57
2018-07-12T13:55:06.233Z,25.75
2018-07-12T13:57:33.659Z,25.98
2018-07-12T14:00:00.915Z,25.45
2018-07-12T14:02:28.688Z,25.23
2018-07-12T14:04:56.226Z,25.28
2018-07-12T14:07:23.598Z,25.66
2018-07-12T14:09:50.957Z,25.49
2018-07-12T14:12:18.255Z,25.49
2018-07-12T14:14:45.515Z,25.60
2018-07-12T14:17:12.822Z,25.68
2018-07-12T14:19:40.136Z,25.69
2018-07-12T14:22:07.387Z,24.83
2018-07-12T14:24:34.607Z,25.20
2018-07-12T14:27:02.137Z,25.31
2018-07-12T14:29:29.481Z,25.27
2018-07-12T14:31:56.821Z,25.33
2018-07-12T14:34:24.113Z,24.21
2018-07-12T14:36:51.511Z,24.19
2018-07-12T14:39:18.849Z,24.57
2018-07-12T14:41:46.260Z,24.82
2018-07-12T14:44:13.716Z,24.64
2018-07-12T14:46:41.075Z,24.35
2018-07-12T14:49:08.319Z,24.45
2018-07-12T14:51:36.379Z,24.37
2018-07-12T14:54:03.718Z,24.08
2018-07-12T14:56:31.030Z,24.06
2018-07-12T14:58:58.294Z,23.93
2018-07-12T15:01:25.757Z,23.54
2018-07-12T15:03:53.064Z,23.93
2018-07-12T15:06:20.391Z,24.39
2018-07-12T15:08:47.759Z,23.97
2018-07-12T15:11:15.188Z,24.01
2018-07-12T15:13:42.535Z,23.99
2018-07-12T15:16:10.615Z,23.88
2018-07-12T15:18:38.081Z,23.98
2018-07-12T15:21:05.612Z,23.65
2018-07-12T15:23:32.985Z,23.63
2018-07-12T15:26:00.486Z,23.10
2018-07-12T15:28:27.723Z,23.39
2018-07-12T15:30:55.209Z,23.42
2018-07-12T15:33:22.599Z,23.75
2018-07-12T15:35:49.909Z,23.72
2018-07-12T15:38:17.278Z,23.57
2018-07-12T15:40:44.563Z,23.47
2018-07-12T15:43:11.967Z,23.65
2018-07-12T15:45:39.385Z,23.61
2018-07-12T15:48:06.721Z,23.51
2018-07-12T15:50:34.022Z,23.57
2018-07-12T15:53:01.376Z,23.30
2018-07-12T15:55:28.937Z,23.26
2018-07-12T15:57:56.486Z,22.97
2018-07-12T16:00:24.168Z,22.97
2018-07-12T16:02:51.483Z,22.96
2018-07-12T16:05:18.936Z,22.73
2018-07-12T16:07:46.442Z,22.82
2018-07-12T16:10:13.856Z,22.94
2018-07-12T16:12:41.217Z,22.84
2018-07-12T16:15:09.155Z,22.71
2018-07-12T16:17:36.519Z,22.46
2018-07-12T16:20:04.531Z,22.30
2018-07-12T16:22:32.041Z,22.46
2018-07-12T16:24:59.425Z,22.31
2018-07-12T16:27:26.752Z,22.21
2018-07-12T16:29:54.131Z,22.29
2018-07-12T16:32:21.445Z,22.21
2018-07-12T16:34:48.807Z,21.85
2018-07-12T16:37:16.342Z,21.57
2018-07-12T16:39:43.760Z,21.16
2018-07-12T16:42:11.150Z,21.05
2018-07-12T16:44:38.615Z,21.18
2018-07-12T16:47:06.205Z,20.95
2018-07-12T16:49:33.681Z,20.88
2018-07-12T16:52:01.159Z,20.79
2018-07-12T16:54:28.818Z,20.67
2018-07-12T16:56:56.180Z,20.37
2018-07-12T16:59:23.608Z,20.50
2018-07-12T17:01:51.004Z,20.65
2018-07-12T17:04:18.352Z,20.76
2018-07-12T17:06:45.790Z,20.60
2018-07-12T17:09:13.117Z,20.04
2018-07-12T17:11:40.486Z,20.14
2018-07-12T17:14:07.813Z,20.33
2018-07-12T17:16:35.172Z,20.10
2018-07-12T17:19:02.554Z,20.19
2018-07-12T17:21:29.898Z,20.34
2018-07-12T17:23:57.237Z,19.95
2018-07-12T17:26:24.794Z,19.91
2018-07-12T17:28:52.539Z,19.91
2018-07-12T17:31:19.896Z,20.02
2018-07-12T17:33:47.897Z,20.07
2018-07-12T17:36:15.499Z,19.82
2018-07-12T17:38:42.977Z,19.78
2018-07-12T17:41:10.444Z,19.77
2018-07-12T17:43:37.756Z,19.78
2018-07-12T17:46:05.118Z,19.53
2018-07-12T17:48:32.498Z,19.33
2018-07-12T17:50:59.900Z,19.47
2018-07-12T17:53:27.218Z,19.44
2018-07-12T17:55:54.518Z,19.33
2018-07-12T17:58:22.577Z,19.43
2018-07-12T18:00:50.057Z,19.40
2018-07-12T18:03:17.583Z,19.36
2018-07-12T18:05:44.917Z,19.03
2018-07-12T18:08:12.465Z,19.13
2018-07-12T18:10:39.855Z,19.12
2018-07-12T18:13:07.251Z,19.02
2018-07-12T18:15:35.270Z,18.89
2018-07-12T18:18:02.779Z,18.94
2018-07-12T18:20:30.124Z,18.55
2018-07-12T18:22:57.581Z,18.75
2018-07-12T18:25:25.102Z,18.67
2018-07-12T18:27:52.652Z,18.61
2018-07-12T18:30:20.214Z,18.48
2018-07-12T18:32:47.711Z,18.41
2018-07-12T18:35:15.183Z,18.24
2018-07-12T18:37:42.537Z,18.21
2018-07-12T18:40:10.185Z,18.17
2018-07-12T18:42:37.493Z,18.36
2018-07-12T18:45:04.742Z,18.20
2018-07-12T18:47:32.036Z,18.07
2018-07-12T18:49:59.442Z,18.04
2018-07-12T18:52:26.782Z,18.11
2018-07-12T18:54:54.081Z,18.10
2018-07-12T18:57:21.918Z,18.05
2018-07-12T18:59:49.597Z,17.82
2018-07-12T19:02:17.007Z,17.86
2018-07-12T19:04:44.828Z,17.91
2018-07-12T19:07:12.317Z,17.80
2018-07-12T19:09:39.644Z,17.74
2018-07-12T19:12:07.097Z,17.90
2018-07-12T19:14:34.433Z,17.70
2018-07-12T19:17:01.785Z,17.59
2018-07-12T19:19:29.242Z,17.84
2018-07-12T19:21:56.569Z,17.80
2018-07-12T19:24:24.006Z,17.91
2018-07-12T19:26:51.530Z,17.73
2018-07-12T19:29:18.956Z,17.56
2018-07-12T19:31:46.689Z,17.48
2018-07-12T19:34:14.035Z,17.37
2018-07-12T19:36:41.369Z,17.39
2018-07-12T19:39:08.982Z,17.42
2018-07-12T19:41:36.533Z,17.31
2018-07-12T19:44:03.927Z,17.21
2018-07-12T19:46:31.661Z,17.25
2018-07-12T19:48:59.046Z,17.23
2018-07-12T19:51:26.329Z,17.21
2018-07-12T19:53:53.807Z,17.30
2018-07-12T19:56:21.270Z,17.19
2018-07-12T19:58:48.542Z,17.27
2018-07-12T20:01:15.839Z,17.16
2018-07-12T20:03:43.252Z,17.12
2018-07-12T20:06:10.453Z,17.19
2018-07-12T20:08:37.710Z,17.13
2018-07-12T20:11:04.973Z,16.98
2018-07-12T20:13:32.834Z,17.01
2018-07-12T20:16:00.086Z,17.00
2018-07-12T20:18:27.389Z,17.06
2018-07-12T20:20:54.710Z,16.93
2018-07-12T20:23:22.083Z,16.94
2018-07-12T20:25:49.378Z,17.00
2018-07-12T20:28:16.857Z,17.03
2018-07-12T20:30:44.485Z,16.96
2018-07-12T20:33:12.473Z,16.74
2018-07-12T20:35:39.721Z,16.82
2018-07-12T20:38:06.981Z,16.83
2018-07-12T20:40:34.689Z,16.75
2018-07-12T20:43:02.022Z,16.77
2018-07-12T20:45:29.236Z,16.80
2018-07-12T20:47:56.498Z,16.69
2018-07-12T20:50:23.764Z,16.79
2018-07-12T20:52:50.981Z,16.77
2018-07-12T20:55:18.257Z,16.78
2018-07-12T20:57:45.582Z,16.64
2018-07-12T21:00:12.801Z,16.61
2018-07-12T21:02:40.170Z,16.57
2018-07-12T21:05:07.381Z,16.61
2018-07-12T21:07:34.705Z,16.65
2018-07-12T21:10:01.975Z,16.57
2018-07-12T21:12:29.683Z,16.55
2018-07-12T21:14:57.005Z,16.44
2018-07-12T21:17:24.246Z,16.50
2018-07-12T21:19:51.561Z,16.53
2018-07-12T21:22:18.878Z,16.51
2018-07-12T21:24:46.172Z,16.60
2018-07-12T21:27:13.446Z,16.49
2018-07-12T21:29:40.677Z,16.60
2018-07-12T21:32:07.925Z,16.41
2018-07-12T21:34:35.403Z,16.38
2018-07-12T21:37:02.770Z,16.53
2018-07-12T21:39:30.160Z,16.35
2018-07-12T21:41:57.529Z,16.40
2018-07-12T21:44:24.819Z,16.33
2018-07-12T21:46:52.026Z,16.45
2018-07-12T21:49:19.259Z,16.48
2018-07-12T21:51:47.291Z,16.37
2018-07-12T21:54:14.475Z,16.35
2018-07-12T21:56:41.701Z,16.37
2018-07-12T21:59:09.010Z,16.29
2018-07-12T22:01:36.406Z,16.32
2018-07-12T22:04:03.760Z,16.35
2018-07-12T22:08:42.702Z,16.33
2018-07-12T22:11:10.079Z,16.39
2018-07-12T22:13:37.714Z,16.38
2018-07-12T22:16:05.084Z,16.29
2018-07-12T22:18:32.362Z,16.35
2018-07-12T22:20:59.679Z,16.30
2018-07-12T22:23:26.886Z,16.14
2018-07-12T22:25:54.130Z,16.16
2018-07-12T22:28:21.778Z,16.13
2018-07-12T22:30:49.136Z,16.20
2018-07-12T22:33:16.373Z,16.10
2018-07-12T22:35:43.741Z,16.22
2018-07-12T22:38:11.328Z,16.22
2018-07-12T22:40:38.722Z,16.24
2018-07-12T22:43:06.689Z,16.18
2018-07-12T22:45:34.051Z,16.23
2018-07-12T22:48:01.716Z,16.23
2018-07-12T22:50:29.185Z,16.19
2018-07-12T22:52:56.496Z,16.06
2018-07-12T22:55:23.796Z,16.13
2018-07-12T22:57:51.053Z,16.11
2018-07-12T23:00:18.484Z,16.23
2018-07-12T23:02:45.769Z,16.25
2018-07-12T23:05:13.362Z,16.25
2018-07-12T23:07:40.695Z,16.22
2018-07-12T23:10:07.952Z,16.36
2018-07-12T23:12:35.157Z,16.43
2018-07-12T23:15:03.017Z,16.40
2018-07-12T23:17:30.268Z,16.37
2018-07-12T23:19:57.582Z,16.36
2018-07-12T23:22:24.981Z,16.27
2018-07-12T23:24:52.630Z,16.33
2018-07-12T23:27:19.870Z,16.45
2018-07-12T23:29:47.429Z,16.46
2018-07-12T23:32:14.785Z,16.48
2018-07-12T23:34:42.137Z,16.53
2018-07-12T23:37:09.394Z,16.51
2018-07-12T23:39:37.053Z,16.50
2018-07-12T23:42:04.619Z,16.52
2018-07-12T23:44:32.131Z,16.56
2018-07-12T23:46:59.415Z,16.60
2018-07-12T23:49:26.704Z,16.61
2018-07-12T23:51:53.967Z,16.63
2018-07-12T23:54:21.914Z,16.44
2018-07-12T23:56:49.524Z,16.49
2018-07-12T23:59:17.237Z,16.50
